Urb Floral Park, Puerto Rico
Current Conditions -  °F | °C
As of 9:56 PM on Sunday 23 Nov 2014 (Local Time) from TJSJ Reporting Station
Scattered Clouds Scattered Clouds  
Wind Chill: 81°   Ceiling: Unl
Heat Index: 85°   Visibility: 10mi
Dew Point: 72°   Wind: 13mph
Humidity: 74%   Direction: 80°E
Pressure: 30.02"   Gusts: NA
Location:  18.4238°N, 66.0515°W
Report Text: TJSJ 240156Z 08011KT 10SM SCT026 27/22 A3002 RMK AO2 RAB21E45 SLP165 T02720222 $
Loading
Personal Weather Stations






























Interactive Weather Map New forecast layout! Learn more

10-Day Weather Forecast

Advertisements
Track Severe Weather on mobile